createdAt,value
2022-09-13T00:02:14.020Z,21.70
2022-09-13T00:04:41.133Z,21.70
2022-09-13T00:07:07.654Z,21.70
2022-09-13T00:09:34.168Z,21.71
2022-09-13T00:12:00.680Z,21.70
2022-09-13T00:14:27.203Z,21.70
2022-09-13T00:16:53.691Z,21.69
2022-09-13T00:19:20.192Z,21.69
2022-09-13T00:21:46.687Z,21.70
2022-09-13T00:24:13.200Z,21.70
2022-09-13T00:26:39.688Z,21.68
2022-09-13T00:29:06.178Z,21.68
2022-09-13T00:31:32.726Z,21.68
2022-09-13T00:34:00.378Z,21.69
2022-09-13T00:36:27.468Z,21.68
2022-09-13T00:38:53.962Z,21.68
2022-09-13T00:41:21.425Z,21.67
2022-09-13T00:43:57.547Z,21.67
2022-09-13T00:46:45.665Z,21.67
2022-09-13T00:49:28.016Z,21.68
2022-09-13T00:52:08.876Z,21.67
2022-09-13T00:54:43.994Z,21.67
2022-09-13T00:57:13.778Z,21.67
2022-09-13T01:00:13.494Z,21.67
2022-09-13T01:02:53.792Z,21.66
2022-09-13T01:05:24.145Z,21.67
2022-09-13T01:07:51.401Z,21.65
2022-09-13T01:10:18.116Z,21.65
2022-09-13T01:13:01.800Z,21.65
2022-09-13T01:15:28.299Z,21.64
2022-09-13T01:17:55.531Z,21.64
2022-09-13T01:20:31.642Z,21.64
2022-09-13T01:23:25.080Z,21.65
2022-09-13T01:25:54.250Z,21.64
2022-09-13T01:29:07.399Z,21.65
2022-09-13T01:31:51.764Z,21.64
2022-09-13T01:34:41.590Z,21.63
2022-09-13T01:37:31.219Z,21.63
2022-09-13T01:40:20.950Z,21.63
2022-09-13T01:43:12.662Z,21.63
2022-09-13T01:45:39.136Z,21.64
2022-09-13T01:48:31.648Z,21.63
2022-09-13T01:51:07.307Z,21.62
2022-09-13T01:53:51.587Z,21.62
2022-09-13T01:56:45.392Z,21.62
2022-09-13T01:59:28.756Z,21.62
2022-09-13T02:02:05.255Z,21.61
2022-09-13T02:04:40.500Z,21.60
2022-09-13T02:07:25.090Z,21.61
2022-09-13T02:09:59.639Z,21.60
2022-09-13T02:12:29.581Z,21.59
2022-09-13T02:15:16.947Z,21.60
2022-09-13T02:17:50.652Z,21.60
2022-09-13T02:20:28.084Z,21.60
2022-09-13T02:22:59.329Z,21.60
2022-09-13T02:25:28.802Z,21.61
2022-09-13T02:28:01.533Z,21.60
2022-09-13T02:30:31.610Z,21.59
2022-09-13T02:33:07.344Z,21.60
2022-09-13T02:35:38.915Z,21.59
2022-09-13T02:38:11.841Z,21.60
2022-09-13T02:40:46.213Z,21.60
2022-09-13T02:43:25.103Z,21.59
2022-09-13T02:46:00.474Z,21.58
2022-09-13T02:48:37.489Z,21.58
2022-09-13T02:51:19.975Z,21.58
2022-09-13T02:54:15.476Z,21.58
2022-09-13T02:56:53.121Z,21.58
2022-09-13T02:59:21.886Z,21.57
2022-09-13T03:02:04.069Z,21.57
2022-09-13T03:04:32.416Z,21.57
2022-09-13T03:06:58.926Z,21.57
2022-09-13T03:09:25.846Z,21.57
2022-09-13T03:12:10.474Z,21.57
2022-09-13T03:14:49.243Z,21.55
2022-09-13T03:17:24.574Z,21.56
2022-09-13T03:19:57.099Z,21.56
2022-09-13T03:22:53.085Z,21.56
2022-09-13T03:25:34.460Z,21.57
2022-09-13T03:28:19.715Z,21.55
2022-09-13T03:30:56.714Z,21.55
2022-09-13T03:33:32.887Z,21.55
2022-09-13T03:36:20.939Z,21.56
2022-09-13T03:38:54.343Z,21.55
2022-09-13T03:41:24.846Z,21.54
2022-09-13T03:43:56.754Z,21.54
2022-09-13T03:46:31.449Z,21.54
2022-09-13T03:49:07.055Z,21.54
2022-09-13T03:51:34.074Z,21.54
2022-09-13T03:54:05.030Z,21.53
2022-09-13T03:56:31.688Z,21.53
2022-09-13T03:58:58.335Z,21.53
2022-09-13T04:01:25.255Z,21.53
2022-09-13T04:03:56.325Z,21.52
2022-09-13T04:06:23.235Z,21.52
2022-09-13T04:08:49.887Z,21.52
2022-09-13T04:11:16.551Z,21.52
2022-09-13T04:13:43.113Z,21.53
2022-09-13T04:16:09.685Z,21.53
2022-09-13T04:18:36.242Z,21.51
2022-09-13T04:21:04.584Z,21.53
2022-09-13T04:23:31.499Z,21.51
2022-09-13T04:26:05.170Z,21.51
2022-09-13T04:28:31.693Z,21.52
2022-09-13T04:30:58.284Z,21.51
2022-09-13T04:33:25.087Z,21.50
2022-09-13T04:36:00.191Z,21.50
2022-09-13T04:38:27.265Z,21.50
2022-09-13T04:40:55.527Z,21.51
2022-09-13T04:43:22.890Z,21.49
2022-09-13T04:45:50.185Z,21.50
2022-09-13T04:48:16.788Z,21.50
2022-09-13T04:50:43.454Z,21.50
2022-09-13T04:53:09.960Z,21.50
2022-09-13T04:55:36.935Z,21.50
2022-09-13T04:58:04.951Z,21.50
2022-09-13T05:00:31.678Z,21.49
2022-09-13T05:02:58.181Z,21.49
2022-09-13T05:05:25.939Z,21.49
2022-09-13T05:07:53.034Z,21.48
2022-09-13T05:10:19.764Z,21.48
2022-09-13T05:12:46.990Z,21.48
2022-09-13T05:15:13.707Z,21.48
2022-09-13T05:17:40.223Z,21.48
2022-09-13T05:20:07.270Z,21.48
2022-09-13T05:22:33.851Z,21.48
2022-09-13T05:25:00.334Z,21.47
2022-09-13T05:27:26.803Z,21.47
2022-09-13T05:29:53.276Z,21.47
2022-09-13T05:32:19.774Z,21.47
2022-09-13T05:34:46.255Z,21.47
2022-09-13T05:37:12.724Z,21.47
2022-09-13T05:40:07.368Z,21.46
2022-09-13T05:42:25.724Z,21.47
2022-09-13T05:44:52.260Z,21.47
2022-09-13T05:47:18.757Z,21.46
2022-09-13T05:50:03.432Z,21.46
2022-09-13T05:52:31.727Z,21.47
2022-09-13T05:54:58.218Z,21.46
2022-09-13T05:57:24.706Z,21.46
2022-09-13T05:59:51.191Z,21.47
2022-09-13T06:02:17.798Z,21.46
2022-09-13T06:04:44.317Z,21.45
2022-09-13T06:07:12.407Z,21.45
2022-09-13T06:09:38.895Z,21.45
2022-09-13T06:12:05.462Z,21.44
2022-09-13T06:14:31.978Z,21.44
2022-09-13T06:16:58.789Z,21.43
2022-09-13T06:19:25.588Z,21.44
2022-09-13T06:21:52.106Z,21.44
2022-09-13T06:24:18.666Z,21.43
2022-09-13T06:26:45.147Z,21.43
2022-09-13T06:29:12.834Z,21.44
2022-09-13T06:31:43.731Z,21.44
2022-09-13T06:34:13.420Z,21.44
2022-09-13T06:36:39.945Z,21.43
2022-09-13T06:39:06.760Z,21.43
2022-09-13T06:41:33.814Z,21.43
2022-09-13T06:44:01.436Z,21.43
2022-09-13T06:46:32.840Z,21.43
2022-09-13T06:49:04.775Z,21.42
2022-09-13T06:51:32.647Z,21.43
2022-09-13T06:54:00.166Z,21.41
2022-09-13T06:56:32.574Z,21.42
2022-09-13T06:59:01.516Z,21.42
2022-09-13T07:01:46.918Z,21.41
2022-09-13T07:04:16.028Z,21.41
2022-09-13T07:06:51.323Z,21.41
2022-09-13T07:09:21.495Z,21.41
2022-09-13T07:11:50.081Z,21.42
2022-09-13T07:14:23.282Z,21.41
2022-09-13T07:16:51.751Z,21.41
2022-09-13T07:19:23.823Z,21.42
2022-09-13T07:21:50.776Z,21.41
2022-09-13T07:24:18.350Z,21.41
2022-09-13T07:26:45.622Z,21.41
2022-09-13T07:29:19.070Z,21.41
2022-09-13T07:31:47.139Z,21.41
2022-09-13T07:34:19.078Z,21.41
2022-09-13T07:36:46.983Z,21.41
2022-09-13T07:39:16.482Z,21.42
2022-09-13T07:41:46.441Z,21.40
2022-09-13T07:44:13.580Z,21.41
2022-09-13T07:46:41.673Z,21.41
2022-09-13T07:49:08.286Z,21.41
2022-09-13T07:51:37.090Z,21.40
2022-09-13T07:54:06.706Z,21.40
2022-09-13T07:56:36.131Z,21.41
2022-09-13T07:59:05.438Z,21.40
2022-09-13T08:01:40.281Z,21.41
2022-09-13T08:04:10.397Z,21.41
2022-09-13T08:06:38.936Z,21.40
2022-09-13T08:09:07.399Z,21.41
2022-09-13T08:11:43.158Z,21.40
2022-09-13T08:14:12.101Z,21.40
2022-09-13T08:16:42.001Z,21.40
2022-09-13T08:19:12.592Z,21.41
2022-09-13T08:21:41.007Z,21.40
2022-09-13T08:24:13.463Z,21.40
2022-09-13T08:26:39.967Z,21.41
2022-09-13T08:29:07.047Z,21.41
2022-09-13T08:31:34.250Z,21.39
2022-09-13T08:34:00.965Z,21.41
2022-09-13T08:36:28.581Z,21.41
2022-09-13T08:38:59.136Z,21.41
2022-09-13T08:41:42.186Z,21.41
2022-09-13T08:44:29.618Z,21.41
2022-09-13T08:47:37.284Z,21.41
2022-09-13T08:50:38.176Z,21.42
2022-09-13T08:53:14.124Z,21.41
2022-09-13T08:56:02.083Z,21.41
2022-09-13T08:58:52.518Z,21.39
2022-09-13T09:01:27.882Z,21.41
2022-09-13T09:04:12.831Z,21.40
2022-09-13T09:06:39.662Z,21.41
2022-09-13T09:09:11.620Z,21.41
2022-09-13T09:11:48.706Z,21.40
2022-09-13T09:14:32.739Z,21.40
2022-09-13T09:17:04.551Z,21.40
2022-09-13T09:19:51.323Z,21.41
2022-09-13T09:22:22.123Z,21.40
2022-09-13T09:24:54.225Z,21.39
2022-09-13T09:27:21.609Z,21.41
2022-09-13T09:29:49.334Z,21.40
2022-09-13T09:32:26.158Z,21.40
2022-09-13T09:35:23.805Z,21.40
2022-09-13T09:38:14.408Z,21.41
2022-09-13T09:40:40.952Z,21.40
2022-09-13T09:43:24.212Z,21.40
2022-09-13T09:45:54.646Z,21.40
2022-09-13T09:48:29.793Z,21.40
2022-09-13T09:51:01.291Z,21.40
2022-09-13T09:53:45.979Z,21.39
2022-09-13T09:56:19.979Z,21.40
2022-09-13T09:58:47.008Z,21.40
2022-09-13T10:01:29.191Z,21.39
2022-09-13T10:04:04.773Z,21.40
2022-09-13T10:06:31.882Z,21.39
2022-09-13T10:09:17.540Z,21.40
2022-09-13T10:11:52.073Z,21.40
2022-09-13T10:14:46.818Z,21.39
2022-09-13T10:17:22.287Z,21.39
2022-09-13T10:20:04.220Z,21.40
2022-09-13T10:22:33.963Z,21.40
2022-09-13T10:25:22.237Z,21.40
2022-09-13T10:27:53.898Z,21.39
2022-09-13T10:30:36.823Z,21.40
2022-09-13T10:33:04.419Z,21.39
2022-09-13T10:35:31.531Z,21.39
2022-09-13T10:37:58.102Z,21.40
2022-09-13T10:40:31.339Z,21.40
2022-09-13T10:43:00.215Z,21.39
2022-09-13T10:45:30.606Z,21.40
2022-09-13T10:48:06.402Z,21.40
2022-09-13T10:50:33.933Z,21.40
2022-09-13T10:53:02.016Z,21.40
2022-09-13T10:55:29.100Z,21.39
2022-09-13T10:58:17.315Z,21.39
2022-09-13T11:01:29.155Z,21.39
2022-09-13T11:04:16.642Z,21.39
2022-09-13T11:07:01.513Z,21.39
2022-09-13T11:09:48.036Z,21.39
2022-09-13T11:12:28.815Z,21.39
2022-09-13T11:15:22.308Z,21.38
2022-09-13T11:17:54.380Z,21.38
2022-09-13T11:20:45.916Z,21.40
2022-09-13T11:23:31.304Z,21.39
2022-09-13T11:26:15.930Z,21.39
2022-09-13T11:28:42.644Z,21.39
2022-09-13T11:31:24.465Z,21.38
2022-09-13T11:33:59.476Z,21.39
2022-09-13T11:36:57.710Z,21.38
2022-09-13T11:39:28.461Z,21.39
2022-09-13T11:42:00.685Z,21.39
2022-09-13T11:44:42.452Z,21.39
2022-09-13T11:47:36.841Z,21.39
2022-09-13T11:50:28.641Z,21.39
2022-09-13T11:53:32.583Z,21.39
2022-09-13T11:56:06.883Z,21.39
2022-09-13T11:58:39.677Z,21.39
2022-09-13T12:01:10.540Z,21.39
2022-09-13T12:03:43.660Z,21.39
2022-09-13T12:06:23.250Z,21.39
2022-09-13T12:08:54.528Z,21.39
2022-09-13T12:11:43.027Z,21.39
2022-09-13T12:14:20.179Z,21.40
2022-09-13T12:16:53.962Z,21.40
2022-09-13T12:19:45.436Z,21.39
2022-09-13T12:22:13.703Z,21.39
2022-09-13T12:24:55.675Z,21.39
2022-09-13T12:27:29.156Z,21.39
2022-09-13T12:29:57.587Z,21.39
2022-09-13T12:32:24.649Z,21.39
2022-09-13T12:34:55.332Z,21.40
2022-09-13T12:37:49.876Z,21.39
2022-09-13T12:40:39.624Z,21.40
2022-09-13T12:43:47.912Z,21.39
2022-09-13T12:46:23.380Z,21.39
2022-09-13T12:49:16.032Z,21.38
2022-09-13T12:51:51.683Z,21.39
2022-09-13T12:54:21.078Z,21.39
2022-09-13T12:57:08.996Z,21.38
2022-09-13T12:59:56.231Z,21.39
2022-09-13T13:02:38.415Z,21.39
2022-09-13T13:05:49.531Z,21.40
2022-09-13T13:08:21.938Z,21.40
2022-09-13T13:11:05.691Z,21.39
2022-09-13T13:13:38.320Z,21.39
2022-09-13T13:16:09.150Z,21.39
2022-09-13T13:18:36.309Z,21.39
2022-09-13T13:21:02.859Z,21.40
2022-09-13T13:23:34.564Z,21.39
2022-09-13T13:26:38.696Z,21.39
2022-09-13T13:29:13.127Z,21.40
2022-09-13T13:31:44.717Z,21.39
2022-09-13T13:34:14.371Z,21.40
2022-09-13T13:36:43.412Z,21.40
2022-09-13T13:39:25.072Z,21.41
2022-09-13T13:41:55.633Z,21.40
2022-09-13T13:44:22.063Z,21.40
2022-09-13T13:47:14.681Z,21.40
2022-09-13T13:49:41.107Z,21.41
2022-09-13T13:52:15.668Z,21.40
2022-09-13T13:54:42.199Z,21.41
2022-09-13T13:57:20.931Z,21.40
2022-09-13T13:59:50.393Z,21.40
2022-09-13T14:02:21.618Z,21.41
2022-09-13T14:05:06.045Z,21.40
2022-09-13T14:07:41.495Z,21.41
2022-09-13T14:10:40.339Z,21.41
2022-09-13T14:13:47.883Z,21.41
2022-09-13T14:16:55.833Z,21.42
2022-09-13T14:19:34.224Z,21.40
2022-09-13T14:22:21.423Z,21.41
2022-09-13T14:25:31.099Z,21.41
2022-09-13T14:27:59.483Z,21.40
2022-09-13T14:30:34.970Z,21.40
2022-09-13T14:33:01.796Z,21.41
2022-09-13T14:35:38.154Z,21.40
2022-09-13T14:38:35.446Z,21.41
2022-09-13T14:41:17.712Z,21.40
2022-09-13T14:43:45.555Z,21.40
2022-09-13T14:46:27.997Z,21.40
2022-09-13T14:48:59.407Z,21.40
2022-09-13T14:51:29.933Z,21.40
2022-09-13T14:54:04.827Z,21.40
2022-09-13T14:56:54.598Z,21.40
2022-09-13T14:59:24.054Z,21.40
2022-09-13T15:01:50.800Z,21.41
2022-09-13T15:04:18.364Z,21.40
2022-09-13T15:06:45.094Z,21.40
2022-09-13T15:09:11.626Z,21.40
2022-09-13T15:11:57.815Z,21.40
2022-09-13T15:14:34.854Z,21.41
2022-09-13T15:17:14.173Z,21.41
2022-09-13T15:19:48.886Z,21.40
2022-09-13T15:22:44.511Z,21.42
2022-09-13T15:25:21.643Z,21.41
2022-09-13T15:27:49.091Z,21.41
2022-09-13T15:30:28.284Z,21.41
2022-09-13T15:33:24.727Z,21.41
2022-09-13T15:35:53.508Z,21.42
2022-09-13T15:38:31.601Z,21.42
2022-09-13T15:40:58.092Z,21.42
2022-09-13T15:43:25.303Z,21.42
2022-09-13T15:45:51.845Z,21.42
2022-09-13T15:48:51.307Z,21.41
2022-09-13T15:51:18.398Z,21.42
2022-09-13T15:53:46.515Z,21.44
2022-09-13T15:56:34.683Z,21.47
2022-09-13T15:59:01.203Z,21.52
2022-09-13T16:01:27.907Z,21.54
2022-09-13T16:03:54.517Z,21.58
2022-09-13T16:06:24.618Z,21.61
2022-09-13T16:08:51.421Z,21.63
2022-09-13T16:11:17.861Z,21.65
2022-09-13T16:13:44.338Z,21.67
2022-09-13T16:16:14.617Z,21.69
2022-09-13T16:18:41.156Z,21.71
2022-09-13T16:21:07.662Z,21.74
2022-09-13T16:23:34.173Z,21.74
2022-09-13T16:26:00.777Z,21.77
2022-09-13T16:28:27.943Z,21.78
2022-09-13T16:30:54.818Z,21.79
2022-09-13T16:33:21.375Z,21.81
2022-09-13T16:35:47.923Z,21.81
2022-09-13T16:38:14.791Z,21.83
2022-09-13T16:40:43.434Z,21.83
2022-09-13T16:43:09.989Z,21.83
2022-09-13T16:45:41.347Z,21.84
2022-09-13T16:48:08.540Z,21.86
2022-09-13T16:50:36.070Z,21.86
2022-09-13T16:53:02.720Z,21.87
2022-09-13T16:55:30.158Z,21.86
2022-09-13T16:57:56.654Z,21.89
2022-09-13T17:00:24.817Z,21.89
2022-09-13T17:02:51.750Z,21.90
2022-09-13T17:05:18.391Z,21.91
2022-09-13T17:07:44.870Z,21.91
2022-09-13T17:10:12.672Z,21.92
2022-09-13T17:12:40.048Z,21.93
2022-09-13T17:15:07.351Z,21.93
2022-09-13T17:17:36.287Z,21.93
2022-09-13T17:20:10.229Z,21.94
2022-09-13T17:22:37.132Z,21.94
2022-09-13T17:25:07.652Z,21.94
2022-09-13T17:27:34.391Z,21.92
2022-09-13T17:30:02.366Z,21.91
2022-09-13T17:32:28.908Z,21.90
2022-09-13T17:34:55.512Z,21.87
2022-09-13T17:37:22.083Z,21.86
2022-09-13T17:39:48.685Z,21.83
2022-09-13T17:42:15.328Z,21.83
2022-09-13T17:44:41.852Z,21.82
2022-09-13T17:47:08.366Z,21.82
2022-09-13T17:49:34.910Z,21.81
2022-09-13T17:52:02.233Z,21.82
2022-09-13T17:54:28.671Z,21.81
2022-09-13T17:56:55.175Z,21.81
2022-09-13T17:59:22.501Z,21.82
2022-09-13T18:01:50.727Z,21.82
2022-09-13T18:04:19.731Z,21.82
2022-09-13T18:06:46.811Z,21.81
2022-09-13T18:09:15.609Z,21.82
2022-09-13T18:11:42.591Z,21.80
2022-09-13T18:14:14.489Z,21.81
2022-09-13T18:16:42.092Z,21.81
2022-09-13T18:19:09.183Z,21.81
2022-09-13T18:21:35.926Z,21.80
2022-09-13T18:24:02.733Z,21.81
2022-09-13T18:26:31.430Z,21.81
2022-09-13T18:29:04.231Z,21.81
2022-09-13T18:31:32.632Z,21.81
2022-09-13T18:34:04.442Z,21.81
2022-09-13T18:36:33.393Z,21.81
2022-09-13T18:39:04.112Z,21.81
2022-09-13T18:41:36.375Z,21.81
2022-09-13T18:44:04.999Z,21.81
2022-09-13T18:46:32.923Z,21.81
2022-09-13T18:49:00.261Z,21.81
2022-09-13T18:51:29.364Z,21.81
2022-09-13T18:53:58.119Z,21.82
2022-09-13T18:56:25.403Z,21.81
2022-09-13T18:58:53.054Z,21.81
2022-09-13T19:01:22.931Z,21.81
2022-09-13T19:03:53.830Z,21.81
2022-09-13T19:06:24.667Z,21.82
2022-09-13T19:08:53.494Z,21.81
2022-09-13T19:11:44.812Z,21.81
2022-09-13T19:14:09.450Z,21.81
2022-09-13T19:16:36.401Z,21.80
2022-09-13T19:19:03.165Z,21.81
2022-09-13T19:21:32.008Z,21.81
2022-09-13T19:24:04.067Z,21.81
2022-09-13T19:26:36.370Z,21.81
2022-09-13T19:29:06.336Z,21.80
2022-09-13T19:31:35.498Z,21.80
2022-09-13T19:34:02.522Z,21.80
2022-09-13T19:36:34.274Z,21.79
2022-09-13T19:39:01.075Z,21.79
2022-09-13T19:41:29.818Z,21.80
2022-09-13T19:44:01.251Z,21.81
2022-09-13T19:46:31.690Z,21.80
2022-09-13T19:48:59.638Z,21.80
2022-09-13T19:51:34.627Z,21.79
2022-09-13T19:54:01.790Z,21.77
2022-09-13T19:56:32.686Z,21.77
2022-09-13T19:59:00.309Z,21.76
2022-09-13T20:01:32.632Z,21.75
2022-09-13T20:04:01.767Z,21.74
2022-09-13T20:06:30.293Z,21.74
2022-09-13T20:09:00.907Z,21.73
2022-09-13T20:11:28.979Z,21.73
2022-09-13T20:13:59.868Z,21.72
2022-09-13T20:16:33.766Z,21.72
2022-09-13T20:19:00.917Z,21.70
2022-09-13T20:21:29.083Z,21.71
2022-09-13T20:23:58.949Z,21.70
2022-09-13T20:26:26.286Z,21.70
2022-09-13T20:28:56.990Z,21.70
2022-09-13T20:31:24.461Z,21.70
2022-09-13T20:33:55.943Z,21.69
2022-09-13T20:36:23.362Z,21.70
2022-09-13T20:38:49.963Z,21.69
2022-09-13T20:41:17.131Z,21.68
2022-09-13T20:43:43.657Z,21.68
2022-09-13T20:46:13.134Z,21.68
2022-09-13T20:48:40.796Z,21.68
2022-09-13T20:51:10.731Z,21.67
2022-09-13T20:53:39.045Z,21.67
2022-09-13T20:56:24.689Z,21.66
2022-09-13T20:58:57.604Z,21.66
2022-09-13T21:01:25.197Z,21.66
2022-09-13T21:03:52.583Z,21.67
2022-09-13T21:06:21.320Z,21.66
2022-09-13T21:08:50.326Z,21.67
2022-09-13T21:11:35.181Z,21.65
2022-09-13T21:14:07.135Z,21.66
2022-09-13T21:16:36.644Z,21.65
2022-09-13T21:19:03.930Z,21.65
2022-09-13T21:21:34.565Z,21.65
2022-09-13T21:24:04.023Z,21.65
2022-09-13T21:26:31.940Z,21.65
2022-09-13T21:28:59.696Z,21.65
2022-09-13T21:31:31.296Z,21.65
2022-09-13T21:34:04.131Z,21.65
2022-09-13T21:36:32.140Z,21.65
2022-09-13T21:38:58.756Z,21.64
2022-09-13T21:41:27.008Z,21.65
2022-09-13T21:43:54.270Z,21.64
2022-09-13T21:46:23.804Z,21.64
2022-09-13T21:48:55.783Z,21.65
2022-09-13T21:51:25.206Z,21.64
2022-09-13T21:53:58.207Z,21.64
2022-09-13T21:56:29.821Z,21.65
2022-09-13T21:59:05.858Z,21.64
2022-09-13T22:01:36.185Z,21.64
2022-09-13T22:04:03.769Z,21.64
2022-09-13T22:06:33.609Z,21.64
2022-09-13T22:09:02.802Z,21.65
2022-09-13T22:11:32.158Z,21.64
2022-09-13T22:13:59.880Z,21.64
2022-09-13T22:16:28.701Z,21.64
2022-09-13T22:18:57.695Z,21.65
2022-09-13T22:21:30.099Z,21.64
2022-09-13T22:23:57.011Z,21.64
2022-09-13T22:26:29.226Z,21.63
2022-09-13T22:28:57.957Z,21.64
2022-09-13T22:31:27.619Z,21.64
2022-09-13T22:33:55.835Z,21.63
2022-09-13T22:36:23.647Z,21.65
2022-09-13T22:38:54.767Z,21.63
2022-09-13T22:41:25.038Z,21.63
2022-09-13T22:43:52.216Z,21.63
2022-09-13T22:46:24.582Z,21.63
2022-09-13T22:48:52.931Z,21.63
2022-09-13T22:51:19.543Z,21.62
2022-09-13T22:53:48.067Z,21.63
2022-09-13T22:56:18.707Z,21.62
2022-09-13T22:58:45.698Z,21.63
2022-09-13T23:01:20.079Z,21.63
2022-09-13T23:03:47.830Z,21.63
2022-09-13T23:06:20.878Z,21.63
2022-09-13T23:08:49.031Z,21.62
2022-09-13T23:11:22.814Z,21.62
2022-09-13T23:13:51.601Z,21.63
2022-09-13T23:16:24.229Z,21.63
2022-09-13T23:18:51.898Z,21.61
2022-09-13T23:21:22.659Z,21.62
2022-09-13T23:23:49.557Z,21.62
2022-09-13T23:26:19.688Z,21.62
2022-09-13T23:28:51.375Z,21.63
2022-09-13T23:31:19.891Z,21.62
2022-09-13T23:33:49.567Z,21.61
2022-09-13T23:36:19.618Z,21.61
2022-09-13T23:38:48.674Z,21.61
2022-09-13T23:41:16.435Z,21.61
2022-09-13T23:43:43.111Z,21.62
2022-09-13T23:46:09.828Z,21.61
2022-09-13T23:48:36.469Z,21.61
2022-09-13T23:51:08.508Z,21.61
2022-09-13T23:53:36.754Z,21.62
2022-09-13T23:56:04.256Z,21.62
2022-09-13T23:58:32.120Z,21.62
